Time;durP1;ratioP1;P1;durP2;ratioP2;P2;SDS_P1;SDS_P2;PMS_P1;PMS_P2;Temp;Humidity;BMP_temperature;BMP_pressure;BME280_temperature;BME280_humidity;BME280_pressure;Samples;Min_cycle;Max_cycle;Signal;HPM_P1;HPM_P2
2022/11/15 00:00:26;;;;;;;8.23;4.30;;;8.00;99.90;;;;;;5042209;28;20063;-70
2022/11/15 00:02:55;;;;;;;8.05;3.80;;;8.00;99.90;;;;;;5043978;28;20994;-69
2022/11/15 00:05:21;;;;;;;9.95;4.65;;;8.10;99.90;;;;;;5027935;28;20490;-73
2022/11/15 00:07:46;;;;;;;10.77;5.00;;;8.10;99.90;;;;;;5040151;28;20052;-69
2022/11/15 00:10:12;;;;;;;13.43;5.93;;;8.10;99.90;;;;;;5038114;28;20061;-70
2022/11/15 00:12:38;;;;;;;10.38;5.43;;;8.10;99.90;;;;;;5046982;28;20037;-68
2022/11/15 00:15:04;;;;;;;10.57;5.38;;;8.10;99.90;;;;;;5041459;28;20061;-69
2022/11/15 00:17:30;;;;;;;11.68;6.15;;;8.10;99.90;;;;;;5037325;28;20037;-70
2022/11/15 00:19:55;;;;;;;9.90;5.43;;;8.10;99.90;;;;;;5035398;28;20382;-69
2022/11/15 00:22:22;;;;;;;13.15;5.20;;;8.10;99.90;;;;;;5030634;28;20104;-72
2022/11/15 00:24:47;;;;;;;9.68;5.45;;;8.10;99.90;;;;;;5030324;28;20034;-69
2022/11/15 00:27:13;;;;;;;9.45;5.32;;;8.10;99.90;;;;;;5031327;28;20029;-70
2022/11/15 00:29:42;;;;;;;11.05;5.57;;;8.10;99.90;;;;;;5030097;28;20040;-69
2022/11/15 00:32:09;;;;;;;10.40;5.80;;;8.10;99.90;;;;;;5034343;28;20035;-69
2022/11/15 00:34:35;;;;;;;13.13;5.90;;;8.10;99.90;;;;;;5030088;28;20030;-70
2022/11/15 00:37:01;;;;;;;13.85;6.00;;;8.20;99.90;;;;;;5026159;28;20033;-69
2022/11/15 00:39:27;;;;;;;12.75;6.72;;;8.20;99.90;;;;;;5029821;28;20087;-68
2022/11/15 00:41:52;;;;;;;13.90;6.70;;;8.20;99.90;;;;;;5031924;28;20029;-69
2022/11/15 00:44:18;;;;;;;10.65;6.40;;;8.10;99.90;;;;;;5039178;28;20029;-70
2022/11/15 00:46:43;;;;;;;12.65;6.78;;;8.10;99.90;;;;;;5046398;28;20640;-69
2022/11/15 00:49:09;;;;;;;14.95;7.18;;;8.10;99.90;;;;;;5048168;28;20412;-69
2022/11/15 00:51:35;;;;;;;15.20;6.75;;;8.10;99.90;;;;;;5040327;28;20033;-71
2022/11/15 00:54:00;;;;;;;12.38;6.03;;;8.10;99.90;;;;;;5030974;28;20463;-70
2022/11/15 00:56:26;;;;;;;10.65;5.38;;;8.20;99.90;;;;;;5034949;28;20036;-72
2022/11/15 00:58:53;;;;;;;13.02;5.72;;;8.20;99.90;;;;;;5030503;28;20522;-70
2022/11/15 01:01:18;;;;;;;13.32;6.38;;;8.20;99.90;;;;;;5045876;28;20116;-70
2022/11/15 01:03:44;;;;;;;11.07;6.18;;;8.20;99.90;;;;;;5037699;28;20100;-70
2022/11/15 01:06:10;;;;;;;12.00;6.68;;;8.20;99.90;;;;;;5044054;28;20128;-71
2022/11/15 01:08:36;;;;;;;14.63;7.63;;;8.20;99.90;;;;;;5026924;28;20030;-70
2022/11/15 01:11:07;;;;;;;11.90;6.95;;;8.10;99.90;;;;;;5029223;28;20037;-70
2022/11/15 01:13:34;;;;;;;13.18;6.72;;;8.00;99.90;;;;;;5027354;28;20065;-69
2022/11/15 01:16:11;;;;;;;15.15;6.72;;;8.00;99.90;;;;;;5029828;28;20041;-70
2022/11/15 01:18:37;;;;;;;12.90;6.75;;;8.00;99.90;;;;;;5043106;28;20473;-71
2022/11/15 01:21:08;;;;;;;12.57;6.43;;;8.00;99.90;;;;;;5046356;28;20032;-70
2022/11/15 01:23:34;;;;;;;11.80;6.20;;;8.00;99.90;;;;;;5031964;28;20042;-70
2022/11/15 01:26:01;;;;;;;12.07;7.07;;;8.10;99.90;;;;;;5025457;28;20604;-70
2022/11/15 01:28:34;;;;;;;12.20;6.30;;;8.00;99.90;;;;;;5030787;28;20055;-72
2022/11/15 01:31:01;;;;;;;14.68;7.00;;;8.00;99.90;;;;;;5034548;28;20041;-70
2022/11/15 01:33:28;;;;;;;18.23;7.75;;;8.00;99.90;;;;;;5046415;28;20460;-73
2022/11/15 01:35:54;;;;;;;17.40;7.22;;;8.00;99.90;;;;;;5049511;28;20021;-68
2022/11/15 01:38:20;;;;;;;18.00;8.40;;;8.00;99.90;;;;;;5030325;28;20471;-68
2022/11/15 01:40:47;;;;;;;15.07;8.02;;;8.00;99.90;;;;;;5048031;28;20108;-69
2022/11/15 01:43:26;;;;;;;12.80;7.22;;;8.00;99.90;;;;;;5036330;28;20112;-68
2022/11/15 01:46:27;;;;;;;16.17;7.28;;;8.00;99.90;;;;;;5034230;28;20047;-69
2022/11/15 01:48:55;;;;;;;12.48;6.75;;;8.00;99.90;;;;;;5008309;28;20034;-70
2022/11/15 01:51:25;;;;;;;16.48;7.72;;;8.00;99.90;;;;;;5036471;28;20060;-71
2022/11/15 01:53:55;;;;;;;14.13;6.65;;;8.00;99.90;;;;;;5045907;28;20071;-69
2022/11/15 01:56:25;;;;;;;12.70;6.75;;;8.00;99.90;;;;;;5046986;28;20033;-71
2022/11/15 01:58:52;;;;;;;19.42;6.70;;;7.90;99.90;;;;;;5029399;28;20589;-70
2022/11/15 02:01:19;;;;;;;13.35;6.57;;;7.90;99.90;;;;;;5031502;28;20036;-70
2022/11/15 02:04:23;;;;;;;16.48;6.75;;;7.90;99.90;;;;;;5034866;28;20450;-68
2022/11/15 02:06:49;;;;;;;14.60;6.82;;;7.80;99.90;;;;;;5004126;28;20088;-69
2022/11/15 02:09:16;;;;;;;12.98;7.38;;;7.80;99.90;;;;;;5025732;28;20050;-70
2022/11/15 02:11:42;;;;;;;12.32;6.65;;;7.70;99.90;;;;;;5025498;28;20045;-70
2022/11/15 02:14:10;;;;;;;22.30;8.23;;;7.60;99.90;;;;;;5027535;28;20479;-71
2022/11/15 02:16:42;;;;;;;16.38;7.20;;;7.60;99.90;;;;;;5038903;28;20048;-68
2022/11/15 02:19:32;;;;;;;13.63;7.13;;;7.60;99.90;;;;;;5036025;28;20089;-70
2022/11/15 02:22:18;;;;;;;15.57;7.22;;;7.50;99.90;;;;;;5026025;28;20517;-71
2022/11/15 02:25:04;;;;;;;17.77;8.40;;;7.50;99.90;;;;;;5027156;28;20029;-70
2022/11/15 02:28:23;;;;;;;20.80;8.40;;;7.50;99.90;;;;;;5015431;28;20344;-73
2022/11/15 02:30:56;;;;;;;16.45;8.00;;;7.50;99.90;;;;;;5030145;28;20085;-69
2022/11/15 02:33:41;;;;;;;17.15;7.97;;;7.50;99.90;;;;;;5028777;28;20026;-69
2022/11/15 02:36:17;;;;;;;16.55;7.35;;;7.50;99.90;;;;;;5028128;28;20052;-70
2022/11/15 02:39:07;;;;;;;14.40;7.53;;;7.40;99.90;;;;;;5027300;28;20041;-69
2022/11/15 02:41:47;;;;;;;16.17;7.80;;;7.40;99.90;;;;;;5029562;28;21668;-73
2022/11/15 02:44:36;;;;;;;10.23;5.93;;;7.30;99.90;;;;;;5038583;28;20470;-69
2022/11/15 02:47:13;;;;;;;15.15;7.20;;;7.30;99.90;;;;;;5037189;28;20124;-69
2022/11/15 02:49:45;;;;;;;14.50;7.20;;;7.20;99.90;;;;;;5031033;28;20036;-70
2022/11/15 02:52:19;;;;;;;13.68;7.20;;;7.10;99.90;;;;;;5025837;28;20025;-70
2022/11/15 02:54:56;;;;;;;13.05;6.80;;;7.10;99.90;;;;;;5025477;28;20171;-68
2022/11/15 02:57:52;;;;;;;14.00;6.90;;;6.90;99.90;;;;;;5032485;28;20117;-69
2022/11/15 03:00:21;;;;;;;13.13;6.50;;;6.90;99.90;;;;;;5042323;28;20402;-69
2022/11/15 03:03:05;;;;;;;14.68;6.60;;;6.90;99.90;;;;;;5040954;28;20041;-70
2022/11/15 03:05:59;;;;;;;13.05;6.07;;;6.90;99.90;;;;;;5031358;28;20064;-73
2022/11/15 03:08:32;;;;;;;12.30;6.10;;;6.80;99.90;;;;;;5038512;28;20446;-70
2022/11/15 03:11:11;;;;;;;10.95;5.95;;;6.80;99.90;;;;;;5046026;28;20040;-69
2022/11/15 03:13:47;;;;;;;12.48;6.07;;;6.80;99.90;;;;;;5036746;28;20048;-69
2022/11/15 03:16:20;;;;;;;10.98;5.93;;;6.70;99.90;;;;;;5031490;28;20025;-70
2022/11/15 03:18:57;;;;;;;12.23;6.15;;;6.70;99.90;;;;;;5029884;28;20378;-69
2022/11/15 03:21:24;;;;;;;12.18;5.93;;;6.70;99.90;;;;;;5032662;28;20040;-69
2022/11/15 03:23:52;;;;;;;12.77;5.63;;;6.60;99.90;;;;;;5022834;28;20062;-70
2022/11/15 03:26:21;;;;;;;12.63;5.47;;;6.60;99.90;;;;;;5023752;28;20486;-70
2022/11/15 03:28:46;;;;;;;12.68;5.65;;;6.50;99.90;;;;;;5026947;28;20033;-71
2022/11/15 03:34:06;;;;;;;11.68;5.57;;;6.50;99.90;;;;;;5026401;28;20086;-70
2022/11/15 03:36:33;;;;;;;10.48;5.85;;;6.50;99.90;;;;;;5026705;28;20442;-70
2022/11/15 03:39:04;;;;;;;13.57;6.82;;;6.40;99.90;;;;;;5029320;28;20113;-69
2022/11/15 03:41:56;;;;;;;12.57;6.32;;;6.40;99.90;;;;;;5037084;28;20107;-70
2022/11/15 03:44:46;;;;;;;12.38;6.45;;;6.40;99.90;;;;;;5021679;28;20485;-68
2022/11/15 03:47:42;;;;;;;14.30;6.78;;;6.30;99.90;;;;;;5031256;28;20037;-69
2022/11/15 03:50:13;;;;;;;12.50;6.55;;;6.30;99.90;;;;;;5024792;28;20521;-68
2022/11/15 03:52:40;;;;;;;14.68;7.25;;;6.30;99.90;;;;;;5032199;28;20041;-71
2022/11/15 03:55:10;;;;;;;11.77;6.45;;;6.20;99.90;;;;;;5029071;28;20048;-68
2022/11/15 03:57:36;;;;;;;15.45;7.30;;;6.20;99.90;;;;;;5030807;28;20037;-72
2022/11/15 04:00:05;;;;;;;14.32;6.68;;;6.20;99.90;;;;;;5039369;28;20028;-69
2022/11/15 04:02:31;;;;;;;12.10;6.78;;;6.20;99.90;;;;;;5030042;28;20440;-69
2022/11/15 04:04:57;;;;;;;13.05;6.65;;;6.20;99.90;;;;;;5033578;28;20025;-70
2022/11/15 04:07:22;;;;;;;14.25;7.20;;;6.20;99.90;;;;;;5028482;28;20033;-68
2022/11/15 04:10:03;;;;;;;13.23;6.25;;;6.10;99.90;;;;;;5033562;28;20041;-69
2022/11/15 04:12:32;;;;;;;;;;;6.10;99.90;;;;;;5022708;28;20517;-71
2022/11/15 04:15:12;;;;;;;10.60;5.63;;;6.10;99.90;;;;;;5033672;28;19908;-69
2022/11/15 04:17:50;;;;;;;11.70;6.30;;;6.10;99.90;;;;;;5020161;28;20046;-73
2022/11/15 04:26:08;;;;;;;14.73;6.55;;;5.90;99.90;;;;;;5029286;28;20451;-72
2022/11/15 04:28:33;;;;;;;13.52;6.18;;;5.90;99.90;;;;;;5030883;28;20072;-72
2022/11/15 04:30:59;;;;;;;12.23;6.32;;;5.80;99.90;;;;;;5030157;28;20881;-71
2022/11/15 04:33:25;;;;;;;12.23;6.32;;;5.80;99.90;;;;;;5031005;28;20510;-72
2022/11/15 04:38:36;;;;;;;11.05;4.97;;;5.70;99.90;;;;;;5029748;28;20087;-72
2022/11/15 04:41:02;;;;;;;11.10;5.57;;;5.70;99.90;;;;;;5028764;28;20538;-72
2022/11/15 04:43:29;;;;;;;10.88;5.30;;;5.80;99.90;;;;;;5030429;28;20471;-73
2022/11/15 04:45:55;;;;;;;11.13;4.70;;;5.80;99.90;;;;;;5029888;28;20037;-73
2022/11/15 04:48:20;;;;;;;8.07;3.90;;;6.00;99.90;;;;;;5029641;28;20084;-72
2022/11/15 04:50:48;;;;;;;11.52;4.60;;;6.30;99.90;;;;;;5029548;28;20046;-72
2022/11/15 04:53:14;;;;;;;11.70;4.63;;;6.70;99.90;;;;;;5029589;28;20134;-73
2022/11/15 04:55:39;;;;;;;9.30;4.53;;;6.90;99.90;;;;;;5029981;28;20132;-73
2022/11/15 04:58:05;;;;;;;9.70;5.15;;;7.10;99.90;;;;;;5030552;28;20028;-72
2022/11/15 05:00:31;;;;;;;11.02;5.05;;;7.30;99.90;;;;;;5030136;28;20033;-72
2022/11/15 05:05:41;;;;;;;12.57;5.32;;;7.50;99.90;;;;;;5029552;28;20108;-72
2022/11/15 05:08:07;;;;;;;10.68;5.05;;;7.60;99.90;;;;;;5029343;28;20037;-72
2022/11/15 05:10:33;;;;;;;11.52;5.32;;;7.70;99.90;;;;;;5030166;28;20040;-72
2022/11/15 05:12:59;;;;;;;13.45;6.10;;;7.90;99.90;;;;;;5027954;28;20699;-73
2022/11/15 05:15:24;;;;;;;11.77;5.60;;;7.90;99.90;;;;;;5029410;28;20030;-73
2022/11/15 05:17:50;;;;;;;13.75;5.80;;;8.00;99.90;;;;;;5029085;28;20072;-73
2022/11/15 05:20:15;;;;;;;13.20;5.93;;;8.00;99.90;;;;;;5029885;28;20394;-73
2022/11/15 05:22:41;;;;;;;15.68;7.53;;;8.00;99.90;;;;;;5029482;28;20055;-73
2022/11/15 05:25:07;;;;;;;15.05;7.38;;;8.10;99.90;;;;;;5028439;28;20033;-72
2022/11/15 05:27:34;;;;;;;13.65;7.43;;;8.10;99.90;;;;;;5029988;28;20116;-72
2022/11/15 05:29:59;;;;;;;14.50;6.88;;;8.10;99.90;;;;;;5025163;28;20029;-73
2022/11/15 05:32:25;;;;;;;18.52;6.93;;;8.20;99.90;;;;;;5027906;28;20100;-73
2022/11/15 05:34:51;;;;;;;13.32;7.22;;;8.20;99.90;;;;;;5027446;28;20117;-72
2022/11/15 05:37:18;;;;;;;20.50;12.38;;;8.20;99.90;;;;;;5029507;28;20052;-72
2022/11/15 05:39:43;;;;;;;14.57;7.55;;;8.30;99.90;;;;;;5029326;28;20037;-72
2022/11/15 05:42:12;;;;;;;12.13;6.43;;;8.30;99.90;;;;;;5029352;28;20040;-73
2022/11/15 05:44:41;;;;;;;14.20;7.30;;;8.30;99.90;;;;;;5025846;28;20029;-71
2022/11/15 05:47:10;;;;;;;14.52;7.25;;;8.40;99.90;;;;;;5009177;28;20030;-73
2022/11/15 05:49:39;;;;;;;14.60;7.13;;;8.40;99.90;;;;;;5009659;28;20100;-72
2022/11/15 05:52:09;;;;;;;15.45;7.25;;;8.40;99.90;;;;;;5009059;28;20096;-72
2022/11/15 05:54:36;;;;;;;12.30;6.78;;;7.70;99.90;;;;;;5009565;28;20394;-73
2022/11/15 05:57:02;;;;;;;14.90;6.95;;;7.30;99.90;;;;;;5008931;28;20022;-72
2022/11/15 05:59:33;;;;;;;13.30;6.82;;;7.10;99.90;;;;;;5010333;28;20238;-71
2022/11/15 06:01:59;;;;;;;10.52;5.70;;;7.00;99.90;;;;;;5008730;28;20475;-73
2022/11/15 06:04:24;;;;;;;15.35;7.47;;;6.80;99.90;;;;;;5009575;28;20036;-71
2022/11/15 06:06:50;;;;;;;10.65;5.78;;;6.70;99.90;;;;;;5008850;28;20391;-73
2022/11/15 06:09:16;;;;;;;10.77;5.78;;;6.70;99.90;;;;;;5009473;28;20065;-73
2022/11/15 06:11:41;;;;;;;11.90;5.70;;;6.60;99.90;;;;;;5022084;28;20044;-73
2022/11/15 06:14:07;;;;;;;13.35;5.78;;;6.50;99.90;;;;;;5026884;28;20026;-72
2022/11/15 06:16:32;;;;;;;10.10;5.50;;;6.40;99.90;;;;;;5029097;28;20029;-72
2022/11/15 06:18:58;;;;;;;11.35;6.05;;;6.50;99.90;;;;;;5028177;28;20470;-72
2022/11/15 06:21:24;;;;;;;11.73;6.28;;;6.50;99.90;;;;;;5029038;28;20099;-73
2022/11/15 06:23:49;;;;;;;15.15;7.38;;;6.60;99.90;;;;;;5028211;28;20132;-72
2022/11/15 06:26:15;;;;;;;25.05;11.27;;;6.60;99.90;;;;;;5029048;28;20029;-73
2022/11/15 06:28:40;;;;;;;13.35;7.35;;;6.50;99.90;;;;;;5026786;28;20466;-73
2022/11/15 06:31:09;;;;;;;20.30;10.15;;;6.30;99.90;;;;;;5027663;28;20037;-72
2022/11/15 06:33:35;;;;;;;18.95;9.23;;;6.10;99.90;;;;;;5027804;28;20120;-74
2022/11/15 06:36:05;;;;;;;18.00;8.77;;;6.10;99.90;;;;;;5026183;28;20117;-73
2022/11/15 06:38:31;;;;;;;18.95;9.82;;;6.00;99.90;;;;;;5027528;28;20064;-72
2022/11/15 06:41:04;;;;;;;15.90;8.68;;;6.10;99.90;;;;;;5027632;28;20494;-73
2022/11/15 06:43:31;;;;;;;16.23;8.48;;;6.10;99.90;;;;;;5028446;28;20029;-72
2022/11/15 06:45:59;;;;;;;17.75;8.82;;;5.90;99.90;;;;;;5027974;28;20060;-72
2022/11/15 06:48:25;;;;;;;14.77;8.07;;;5.90;99.90;;;;;;5028908;28;20034;-73
2022/11/15 06:50:56;;;;;;;17.75;8.63;;;6.00;99.90;;;;;;5027781;28;20623;-73
2022/11/15 06:53:22;;;;;;;22.13;8.75;;;6.00;99.90;;;;;;5027672;28;20129;-72
2022/11/15 06:55:47;;;;;;;16.90;7.45;;;6.00;99.90;;;;;;5028200;28;20108;-72
2022/11/15 06:58:13;;;;;;;19.58;9.00;;;6.20;99.90;;;;;;5028999;28;20426;-73
2022/11/15 07:00:40;;;;;;;16.60;8.38;;;6.30;99.90;;;;;;5028480;28;20390;-74
2022/11/15 07:03:05;;;;;;;20.92;9.00;;;6.10;99.90;;;;;;5026938;28;20057;-72
2022/11/15 07:05:31;;;;;;;21.80;9.50;;;6.20;99.90;;;;;;5028265;28;20064;-73
2022/11/15 07:07:58;;;;;;;20.63;9.27;;;6.20;99.90;;;;;;5027694;28;20033;-72
2022/11/15 07:10:25;;;;;;;17.15;8.45;;;6.20;99.90;;;;;;5027871;28;20403;-73
2022/11/15 07:12:51;;;;;;;15.05;7.88;;;6.20;99.90;;;;;;5027553;28;20125;-72
2022/11/15 07:15:21;;;;;;;16.23;7.90;;;6.20;99.90;;;;;;5028411;28;20116;-72
2022/11/15 07:17:47;;;;;;;13.40;6.95;;;6.10;99.90;;;;;;5027567;28;20111;-75
2022/11/15 07:20:14;;;;;;;14.43;7.00;;;6.00;99.90;;;;;;5026886;28;20394;-73
2022/11/15 07:22:40;;;;;;;15.02;7.40;;;6.00;99.90;;;;;;5026391;28;20099;-72
2022/11/15 07:25:06;;;;;;;16.25;7.75;;;5.90;99.90;;;;;;5029446;28;20386;-73
2022/11/15 07:27:32;;;;;;;18.42;8.32;;;6.00;99.90;;;;;;5032118;28;20112;-72
2022/11/15 07:29:58;;;;;;;23.45;10.77;;;6.10;99.90;;;;;;5030985;28;20117;-73
2022/11/15 07:32:23;;;;;;;28.95;10.20;;;6.20;99.90;;;;;;5032099;28;20748;-73
2022/11/15 07:34:49;;;;;;;14.85;7.03;;;6.30;99.90;;;;;;5030396;28;20030;-75
2022/11/15 07:37:16;;;;;;;14.93;6.82;;;6.40;99.90;;;;;;5031752;28;20065;-73
2022/11/15 07:39:42;;;;;;;11.45;6.45;;;6.40;99.90;;;;;;5030417;28;20120;-73
2022/11/15 07:44:52;;;;;;;14.52;7.28;;;6.50;99.90;;;;;;5030953;28;20035;-73
2022/11/15 07:47:17;;;;;;;17.20;8.38;;;6.60;99.90;;;;;;5031770;28;20124;-73
2022/11/15 07:49:43;;;;;;;12.27;6.90;;;6.70;99.90;;;;;;5029461;28;20037;-73
2022/11/15 07:52:09;;;;;;;11.40;5.78;;;6.80;99.90;;;;;;5030092;28;20694;-74
2022/11/15 07:54:34;;;;;;;18.27;8.95;;;6.80;99.90;;;;;;5026105;28;20030;-74
2022/11/15 07:57:00;;;;;;;18.05;9.40;;;6.80;99.90;;;;;;5026869;28;20037;-72
2022/11/15 07:59:25;;;;;;;20.73;9.55;;;6.80;99.90;;;;;;5031456;28;20367;-73
2022/11/15 08:01:51;;;;;;;20.65;9.93;;;6.80;99.90;;;;;;5031333;28;20478;-74
2022/11/15 08:04:17;;;;;;;20.77;10.10;;;6.90;99.90;;;;;;5031302;28;20034;-72
2022/11/15 08:06:42;;;;;;;18.95;9.82;;;7.00;99.90;;;;;;5031290;28;20021;-73
2022/11/15 08:09:08;;;;;;;20.23;10.70;;;7.10;99.90;;;;;;5030166;28;20025;-72
2022/11/15 08:11:33;;;;;;;26.75;13.55;;;7.10;99.90;;;;;;5030428;28;20030;-73
2022/11/15 08:13:59;;;;;;;27.90;14.85;;;7.30;99.90;;;;;;5030548;28;20045;-73
2022/11/15 08:16:25;;;;;;;31.38;14.00;;;7.40;99.90;;;;;;5031151;28;20096;-72
2022/11/15 08:18:50;;;;;;;20.58;11.35;;;7.50;99.90;;;;;;5030802;28;20532;-76
2022/11/15 08:21:19;;;;;;;24.38;12.48;;;7.70;99.90;;;;;;5030434;28;20037;-73
2022/11/15 08:23:45;;;;;;;21.40;10.85;;;7.90;99.90;;;;;;5030903;28;20056;-74
2022/11/15 08:26:10;;;;;;;24.42;10.85;;;8.20;99.90;;;;;;5029078;28;20116;-73
2022/11/15 08:28:36;;;;;;;21.33;9.75;;;8.40;99.90;;;;;;5031383;28;20034;-71
2022/11/15 08:31:03;;;;;;;17.75;9.40;;;8.70;99.90;;;;;;5030084;28;20041;-74
2022/11/15 08:33:29;;;;;;;21.88;11.65;;;8.80;99.90;;;;;;5029198;28;20151;-74
2022/11/15 08:36:00;;;;;;;20.83;10.15;;;9.00;99.90;;;;;;5029029;28;20128;-76
2022/11/15 08:38:28;;;;;;;20.85;11.23;;;9.10;99.90;;;;;;5030325;28;20025;-72
2022/11/15 08:41:02;;;;;;;19.65;9.40;;;9.20;99.90;;;;;;5030024;28;20037;-74
2022/11/15 08:43:28;;;;;;;18.67;9.20;;;9.30;99.90;;;;;;5031000;28;20032;-73
2022/11/15 08:45:56;;;;;;;22.08;10.02;;;9.40;99.90;;;;;;5030237;28;20037;-75
2022/11/15 08:48:22;;;;;;;16.25;8.40;;;9.60;99.90;;;;;;5028384;28;20045;-71
2022/11/15 08:50:48;;;;;;;17.15;8.23;;;9.60;99.90;;;;;;5030540;28;20033;-73
2022/11/15 08:53:14;;;;;;;20.00;7.88;;;9.70;99.90;;;;;;5029887;28;20028;-73
2022/11/15 08:55:40;;;;;;;17.45;9.48;;;9.80;99.90;;;;;;5030035;28;20100;-74
2022/11/15 08:58:06;;;;;;;14.32;7.95;;;9.90;99.90;;;;;;5028441;28;20029;-73
2022/11/15 09:00:33;;;;;;;20.70;9.18;;;10.10;99.90;;;;;;5030464;28;20033;-74
2022/11/15 09:02:59;;;;;;;24.13;9.55;;;10.30;99.90;;;;;;5028719;28;20031;-73
2022/11/15 09:05:25;;;;;;;22.02;9.98;;;10.40;99.90;;;;;;5030278;28;20409;-73
2022/11/15 09:07:54;;;;;;;24.33;11.40;;;10.60;99.90;;;;;;5030319;28;20108;-73
2022/11/15 09:10:21;;;;;;;20.95;10.05;;;10.70;99.90;;;;;;5030023;28;20044;-73
2022/11/15 09:12:48;;;;;;;21.25;9.35;;;10.90;99.90;;;;;;5030174;28;20120;-73
2022/11/15 09:15:15;;;;;;;17.42;8.43;;;11.10;99.90;;;;;;5029378;28;20021;-74
2022/11/15 09:17:41;;;;;;;14.50;6.97;;;11.30;99.90;;;;;;5029312;28;20030;-74
2022/11/15 09:20:07;;;;;;;21.80;8.70;;;11.40;99.90;;;;;;5029272;28;20083;-73
2022/11/15 09:22:33;;;;;;;19.88;9.82;;;11.60;99.90;;;;;;5028922;28;20049;-72
2022/11/15 09:24:59;;;;;;;15.73;8.20;;;11.80;99.90;;;;;;5028868;28;20554;-73
2022/11/15 09:27:28;;;;;;;15.85;7.50;;;12.10;99.90;;;;;;5029609;28;20065;-72
2022/11/15 09:29:54;;;;;;;14.27;7.03;;;12.40;99.90;;;;;;5029565;28;20041;-75
2022/11/15 09:32:19;;;;;;;15.93;7.35;;;12.60;99.90;;;;;;5027983;28;20137;-73
2022/11/15 09:34:45;;;;;;;16.63;7.82;;;12.90;99.90;;;;;;5029829;28;20390;-73
2022/11/15 09:37:12;;;;;;;16.42;8.55;;;13.10;99.90;;;;;;5026897;28;20029;-73
2022/11/15 09:39:37;;;;;;;11.90;6.68;;;13.10;99.90;;;;;;5029489;28;20496;-73
2022/11/15 09:42:10;;;;;;;13.10;6.57;;;13.20;99.90;;;;;;5028928;28;20029;-73
2022/11/15 09:44:40;;;;;;;14.52;6.78;;;13.30;99.90;;;;;;5028665;28;20025;-73
2022/11/15 09:47:15;;;;;;;12.90;6.38;;;13.40;99.90;;;;;;5028854;28;20030;-73
2022/11/15 09:49:41;;;;;;;11.88;6.13;;;13.40;99.90;;;;;;5029510;28;20041;-72
2022/11/15 09:52:09;;;;;;;16.02;7.13;;;13.40;99.90;;;;;;5028493;28;20037;-73
2022/11/15 09:54:37;;;;;;;14.75;6.90;;;13.50;99.90;;;;;;5028872;28;20033;-72
2022/11/15 09:57:11;;;;;;;13.50;7.07;;;13.60;99.90;;;;;;5028658;28;20478;-73
2022/11/15 09:59:54;;;;;;;11.75;6.30;;;13.60;99.90;;;;;;5028334;28;20051;-72
2022/11/15 10:02:36;;;;;;;14.10;6.68;;;13.70;99.90;;;;;;5026782;28;20025;-73
2022/11/15 10:05:03;;;;;;;18.80;8.95;;;13.80;99.90;;;;;;5028519;28;20029;-73
2022/11/15 10:07:44;;;;;;;19.38;8.15;;;13.90;99.90;;;;;;5029195;28;20064;-73
2022/11/15 10:10:25;;;;;;;16.60;8.52;;;14.10;99.90;;;;;;5028684;28;20030;-71
2022/11/15 10:12:51;;;;;;;;;;;14.20;99.90;;;;;;5029953;28;20146;-73
2022/11/15 10:15:22;;;;;;;16.70;7.72;;;14.10;99.90;;;;;;5028422;28;20167;-71
2022/11/15 10:18:15;;;;;;;18.05;7.95;;;13.90;99.90;;;;;;5028357;28;20030;-73
2022/11/15 10:21:08;;;;;;;25.38;9.07;;;13.90;99.90;;;;;;5028665;28;20185;-73
2022/11/15 10:23:34;;;;;;;12.75;5.65;;;13.80;99.90;;;;;;5028647;28;20053;-73
2022/11/15 10:26:00;;;;;;;10.85;5.03;;;13.80;99.90;;;;;;5028351;28;20036;-73
2022/11/15 10:28:28;;;;;;;10.57;5.30;;;13.80;99.90;;;;;;5028999;28;20083;-71
2022/11/15 10:30:57;;;;;;;12.73;5.32;;;13.70;99.90;;;;;;5028832;28;20033;-73
2022/11/15 10:33:38;;;;;;;10.45;4.80;;;13.80;99.90;;;;;;5027332;28;20484;-73
2022/11/15 10:36:12;;;;;;;12.98;4.97;;;13.80;99.90;;;;;;5027018;28;20037;-73
2022/11/15 10:39:04;;;;;;;10.52;4.93;;;13.80;99.90;;;;;;5027872;28;20033;-71
2022/11/15 10:41:37;;;;;;;10.05;5.20;;;13.80;99.90;;;;;;5027638;28;20049;-72
2022/11/15 10:44:06;;;;;;;11.15;4.90;;;13.80;99.90;;;;;;5026691;28;20087;-72
2022/11/15 10:46:32;;;;;;;11.55;5.65;;;14.00;99.90;;;;;;5028990;28;20091;-74
2022/11/15 10:49:25;;;;;;;7.82;4.03;;;14.10;99.90;;;;;;5028662;28;20091;-74
2022/11/15 10:52:01;;;;;;;8.27;4.20;;;14.10;99.90;;;;;;5022434;28;20064;-73
2022/11/15 10:54:50;;;;;;;9.73;4.50;;;14.20;99.90;;;;;;5028265;28;20033;-73
2022/11/15 10:57:24;;;;;;;10.32;3.78;;;14.30;99.90;;;;;;5027882;28;20029;-72
2022/11/15 11:00:04;;;;;;;7.50;3.42;;;14.30;99.90;;;;;;5030537;28;20034;-73
2022/11/15 11:02:39;;;;;;;7.85;3.92;;;14.30;99.90;;;;;;5032807;28;20037;-74
2022/11/15 11:05:25;;;;;;;5.32;3.00;;;14.40;99.90;;;;;;5030356;28;20454;-72
2022/11/15 11:08:01;;;;;;;7.55;3.00;;;14.50;99.90;;;;;;5031532;28;20433;-72
2022/11/15 11:10:27;;;;;;;11.52;3.38;;;14.60;99.90;;;;;;5032188;28;20040;-74
2022/11/15 11:12:53;;;;;;;7.93;4.57;;;14.70;99.90;;;;;;5031153;28;20137;-73
2022/11/15 11:15:19;;;;;;;9.25;4.10;;;14.80;99.90;;;;;;5031721;28;20537;-72
2022/11/15 11:17:48;;;;;;;11.40;4.03;;;14.80;99.90;;;;;;5032220;28;20104;-73
2022/11/15 11:20:36;;;;;;;9.00;4.13;;;14.70;99.90;;;;;;5031559;28;20482;-73
2022/11/15 11:23:24;;;;;;;8.38;4.20;;;14.70;99.90;;;;;;5027297;28;20060;-74
2022/11/15 11:26:10;;;;;;;9.20;3.90;;;14.70;99.90;;;;;;5032291;28;20518;-72
2022/11/15 11:29:02;;;;;;;5.18;3.15;;;14.70;99.90;;;;;;5031231;28;20402;-74
2022/11/15 11:31:43;;;;;;;6.82;3.20;;;14.80;99.90;;;;;;5031905;28;20060;-72
2022/11/15 11:34:20;;;;;;;5.80;3.47;;;14.90;99.90;;;;;;5031070;28;20159;-72
2022/11/15 11:36:54;;;;;;;5.75;2.90;;;15.10;99.90;;;;;;5032246;28;20025;-72
2022/11/15 11:39:57;;;;;;;6.05;3.22;;;15.20;99.90;;;;;;5031536;28;20037;-73
2022/11/15 11:42:57;;;;;;;6.35;2.95;;;15.20;99.90;;;;;;5030593;28;20102;-73
2022/11/15 11:46:01;;;;;;;6.80;2.90;;;15.20;99.90;;;;;;5029964;28;20026;-73
2022/11/15 11:48:51;;;;;;;11.23;3.65;;;15.20;99.90;;;;;;5011522;28;20042;-72
2022/11/15 11:51:28;;;;;;;5.57;3.30;;;15.30;99.90;;;;;;5011012;28;20499;-74
2022/11/15 11:54:12;;;;;;;7.80;3.33;;;15.30;99.90;;;;;;5022716;28;20107;-74
2022/11/15 11:56:41;;;;;;;6.30;3.38;;;15.30;99.90;;;;;;5029486;28;20116;-72
2022/11/15 11:59:11;;;;;;;6.57;2.20;;;15.20;99.90;;;;;;5030486;28;20033;-73
2022/11/15 12:01:42;;;;;;;6.03;2.25;;;15.20;99.90;;;;;;5030246;28;20067;-72
2022/11/15 12:04:26;;;;;;;4.18;1.70;;;15.00;99.90;;;;;;5030877;28;20025;-71
2022/11/15 12:07:03;;;;;;;4.38;2.30;;;14.80;99.90;;;;;;5030207;28;20060;-73
2022/11/15 12:10:04;;;;;;;11.38;2.55;;;14.80;99.90;;;;;;5030770;28;20502;-72
2022/11/15 12:12:39;;;;;;;;;;;15.00;99.90;;;;;;5025456;28;20494;-71
2022/11/15 12:15:13;;;;;;;5.47;2.67;;;15.00;99.90;;;;;;5029768;28;19908;-73
2022/11/15 12:17:40;;;;;;;5.50;2.97;;;15.00;99.90;;;;;;5031287;28;20029;-72
2022/11/15 12:20:22;;;;;;;5.45;3.20;;;14.90;99.90;;;;;;5029222;28;20041;-74
2022/11/15 12:23:04;;;;;;;9.18;3.45;;;14.90;99.90;;;;;;5030917;28;20107;-73
2022/11/15 12:26:24;;;;;;;6.80;3.00;;;14.90;99.90;;;;;;5031156;28;20079;-74
2022/11/15 12:29:23;;;;;;;5.20;2.53;;;14.90;99.90;;;;;;5008414;28;20490;-73
2022/11/15 12:31:55;;;;;;;4.85;3.03;;;14.90;99.90;;;;;;5030913;28;20069;-72
2022/11/15 12:34:20;;;;;;;6.03;3.00;;;14.90;99.90;;;;;;5030313;28;20029;-72
2022/11/15 12:36:48;;;;;;;5.57;3.17;;;15.00;99.90;;;;;;5029335;28;20449;-73
2022/11/15 12:39:15;;;;;;;4.68;2.50;;;15.30;99.90;;;;;;5030164;28;20037;-73
2022/11/15 12:41:44;;;;;;;4.95;2.53;;;15.50;99.90;;;;;;5030960;28;20029;-72
2022/11/15 12:44:35;;;;;;;6.45;3.05;;;15.50;99.90;;;;;;5029772;28;20057;-74
2022/11/15 12:47:03;;;;;;;5.13;2.95;;;15.30;99.90;;;;;;5026174;28;20486;-73
2022/11/15 12:49:29;;;;;;;4.35;2.80;;;15.20;99.90;;;;;;5013128;28;20041;-74
2022/11/15 12:51:58;;;;;;;6.00;3.22;;;15.10;99.90;;;;;;5030817;28;20046;-72
2022/11/15 12:54:23;;;;;;;5.43;2.92;;;15.00;99.90;;;;;;5030181;28;20033;-73
2022/11/15 12:57:07;;;;;;;4.95;2.63;;;14.90;99.90;;;;;;5030711;28;20394;-72
2022/11/15 12:59:58;;;;;;;7.65;2.97;;;14.80;99.90;;;;;;5029737;28;20029;-72
2022/11/15 13:02:39;;;;;;;6.15;2.80;;;14.80;99.90;;;;;;5029368;28;20029;-73
2022/11/15 13:05:20;;;;;;;8.05;3.25;;;14.90;99.90;;;;;;5029558;28;20037;-72
2022/11/15 13:07:48;;;;;;;6.03;3.25;;;14.90;99.90;;;;;;5030480;28;20162;-72
2022/11/15 13:10:26;;;;;;;6.35;2.90;;;14.90;99.90;;;;;;5029450;28;20119;-73
2022/11/15 13:13:03;;;;;;;5.47;3.28;;;14.80;99.90;;;;;;5030622;28;20091;-73
2022/11/15 13:15:33;;;;;;;5.57;2.85;;;14.80;99.90;;;;;;5029622;28;20725;-74
2022/11/15 13:18:26;;;;;;;7.40;3.33;;;14.80;99.90;;;;;;5030256;28;20059;-74
2022/11/15 13:20:52;;;;;;;6.07;2.97;;;14.90;99.90;;;;;;5029144;28;20038;-73
2022/11/15 13:23:18;;;;;;;8.75;3.65;;;14.80;99.90;;;;;;5028916;28;20057;-72